Time;durP1;ratioP1;P1;durP2;ratioP2;P2;SDS_P1;SDS_P2;PMS_P1;PMS_P2;Temp;Humidity;BMP_temperature;BMP_pressure;BME280_temperature;BME280_humidity;BME280_pressure;Samples;Min_cycle;Max_cycle;Signal;HPM_P1;HPM_P2
2021/06/22 00:00:15;;;;;;;8.40;6.50;;;;;;;22.93;39.28;102175.25;5010100;28;20072;-70
2021/06/22 00:02:41;;;;;;;9.98;7.22;;;;;;;22.93;39.26;102180.63;4992674;28;20026;-70
2021/06/22 00:05:07;;;;;;;7.53;6.65;;;;;;;22.93;39.13;102177.94;4992835;28;20140;-70
2021/06/22 00:07:33;;;;;;;8.43;6.75;;;;;;;22.94;38.95;102184.94;5009510;28;20042;-69
2021/06/22 00:09:58;;;;;;;8.98;6.70;;;;;;;22.94;39.06;102179.59;4992312;28;20045;-70
2021/06/22 00:12:24;;;;;;;7.88;6.65;;;;;;;22.94;39.15;102178.75;4992312;28;20576;-70
2021/06/22 00:14:49;;;;;;;7.35;6.65;;;;;;;22.94;38.98;102179.59;4992074;28;20052;-70
2021/06/22 00:17:15;;;;;;;7.18;6.47;;;;;;;22.95;39.24;102183.09;4992249;28;20046;-70
2021/06/22 00:19:40;;;;;;;7.80;7.00;;;;;;;22.94;39.31;102190.31;4991935;28;20461;-70
2021/06/22 00:22:06;;;;;;;7.60;6.80;;;;;;;22.94;39.40;102184.94;4991820;28;20037;-69
2021/06/22 00:24:31;;;;;;;7.57;6.78;;;;;;;22.94;39.32;102190.31;5009918;28;20371;-70
2021/06/22 00:26:57;;;;;;;7.65;6.85;;;;;;;22.95;39.38;102197.31;4990549;28;20383;-69
2021/06/22 00:29:24;;;;;;;8.60;6.95;;;;;;;22.95;39.58;102194.63;5009950;28;20053;-70
2021/06/22 00:31:50;;;;;;;7.43;6.63;;;;;;;22.95;39.49;102197.31;4975937;28;20461;-70
2021/06/22 00:34:16;;;;;;;8.18;6.90;;;;;;;22.96;39.32;102198.97;5009404;28;20095;-70
2021/06/22 00:36:41;;;;;;;7.68;6.85;;;;;;;22.96;39.41;102195.47;4991594;28;20030;-70
2021/06/22 00:39:07;;;;;;;7.95;7.15;;;;;;;22.95;39.07;102191.13;4975799;28;20096;-70
2021/06/22 00:41:32;;;;;;;8.10;6.70;;;;;;;22.96;39.42;102195.47;4978880;28;20545;-70
2021/06/22 00:49:08;;;;;;;8.15;7.10;;;;;;;22.96;39.41;102187.44;5272460;22;20062;-66
2021/06/22 00:51:34;;;;;;;8.05;7.25;;;;;;;22.96;39.21;102190.09;5001070;28;20373;-67
2021/06/22 00:54:00;;;;;;;7.60;6.22;;;;;;;22.96;39.41;102182.91;5000508;28;20107;-67
2021/06/22 00:56:25;;;;;;;9.18;6.90;;;;;;;22.96;39.08;102187.44;5008825;28;20101;-66
2021/06/22 00:58:51;;;;;;;9.05;7.53;;;;;;;22.96;39.28;102196.28;4991696;28;20063;-66
2021/06/22 01:01:17;;;;;;;7.38;6.60;;;;;;;22.96;39.24;102198.97;4989464;28;20041;-65
2021/06/22 01:03:43;;;;;;;7.90;7.10;;;;;;;22.96;39.48;102196.28;4996729;28;20503;-67
2021/06/22 01:06:12;;;;;;;8.43;7.63;;;;;;;22.96;39.17;102198.13;5008620;28;20070;-66
2021/06/22 01:08:38;;;;;;;7.50;6.72;;;;;;;22.96;39.36;102198.97;5008913;28;20397;-67
2021/06/22 01:11:04;;;;;;;8.35;7.22;;;;;;;22.97;39.21;102191.78;5008992;28;20030;-67
2021/06/22 01:13:30;;;;;;;8.68;6.97;;;;;;;22.97;39.30;102195.28;5008792;28;20030;-71
2021/06/22 01:15:55;;;;;;;8.02;7.05;;;;;;;22.97;39.22;102191.78;5009085;28;20670;-66
2021/06/22 01:18:21;;;;;;;7.88;7.07;;;;;;;22.97;39.50;102189.09;5005570;28;20228;-66
2021/06/22 01:20:47;;;;;;;8.82;7.57;;;;;;;22.97;39.08;102205.16;4994256;28;20097;-66
2021/06/22 01:23:12;;;;;;;7.82;7.03;;;;;;;22.95;39.25;102193.81;4997431;28;20045;-66
2021/06/22 01:25:39;;;;;;;7.60;6.78;;;;;;;22.97;39.29;102194.44;4990593;28;20042;-66
2021/06/22 01:28:05;;;;;;;8.10;7.18;;;;;;;22.97;39.44;102197.13;5008729;28;20084;-66
2021/06/22 01:30:31;;;;;;;8.63;7.15;;;;;;;22.97;39.17;102199.78;5008523;28;20552;-72
2021/06/22 01:32:58;;;;;;;7.88;7.03;;;;;;;22.97;39.38;102205.16;5009100;28;20033;-65
2021/06/22 01:35:25;;;;;;;9.40;6.90;;;;;;;22.98;39.07;102204.13;5007833;28;20057;-66
2021/06/22 01:37:56;;;;;;;8.43;6.72;;;;;;;22.96;39.04;102209.66;5008536;28;20526;-66
2021/06/22 01:40:22;;;;;;;8.88;7.10;;;;;;;22.97;39.23;102208.66;5008378;28;20026;-65
2021/06/22 01:42:48;;;;;;;8.00;7.20;;;;;;;22.97;39.26;102211.34;5008511;28;20033;-67
2021/06/22 01:45:15;;;;;;;7.93;7.13;;;;;;;22.98;39.46;102206.81;5008644;28;20037;-69
2021/06/22 01:47:41;;;;;;;7.60;6.85;;;;;;;22.97;39.31;102216.69;5007357;28;20543;-65
2021/06/22 01:50:08;;;;;;;8.73;7.57;;;;;;;22.98;39.00;102207.63;4999422;28;20038;-65
2021/06/22 01:52:33;;;;;;;7.60;6.80;;;;;;;22.97;38.97;102208.66;5005566;28;20461;-69
2021/06/22 01:55:08;;;;;;;8.85;7.22;;;;;;;22.98;38.94;102202.28;4997009;28;20048;-66
2021/06/22 01:57:33;;;;;;;8.65;6.85;;;;;;;22.97;38.83;102211.34;5007859;28;20421;-72
2021/06/22 01:59:59;;;;;;;7.03;6.32;;;;;;;22.96;39.24;102215.03;5008441;28;20068;-66
2021/06/22 02:02:24;;;;;;;8.02;7.03;;;;;;;22.97;38.83;102210.50;5009582;28;20091;-69
2021/06/22 02:04:51;;;;;;;7.90;6.60;;;;;;;22.97;38.96;102210.50;5011651;28;20037;-67
2021/06/22 02:07:17;;;;;;;8.10;7.20;;;;;;;22.97;39.07;102205.16;5012316;28;20048;-66
2021/06/22 02:09:42;;;;;;;8.00;7.20;;;;;;;22.97;39.05;102210.50;4994134;28;20026;-67
2021/06/22 02:12:08;;;;;;;8.50;7.20;;;;;;;22.97;39.28;102211.34;4994855;28;20121;-66
2021/06/22 02:14:34;;;;;;;8.70;7.18;;;;;;;22.96;38.99;102212.34;5011982;28;20038;-69
2021/06/22 02:16:59;;;;;;;7.65;6.85;;;;;;;22.97;39.11;102210.50;5011563;28;20034;-67
2021/06/22 02:19:25;;;;;;;8.07;6.78;;;;;;;22.96;39.21;102216.88;4994535;28;20037;-68
2021/06/22 02:21:50;;;;;;;7.20;6.50;;;;;;;22.95;38.78;102216.03;5010461;28;20445;-65
2021/06/22 02:24:15;;;;;;;7.97;6.95;;;;;;;22.97;39.19;102213.19;5001843;28;20038;-66
2021/06/22 02:26:41;;;;;;;7.60;6.75;;;;;;;22.97;38.79;102218.53;5011582;28;20111;-66
2021/06/22 02:29:06;;;;;;;7.88;7.07;;;;;;;22.96;38.84;102215.03;5012412;28;20099;-66
2021/06/22 02:31:32;;;;;;;7.57;6.75;;;;;;;22.97;39.21;102214.00;5011321;28;20034;-65
2021/06/22 02:33:57;;;;;;;7.75;6.95;;;;;;;22.97;38.78;102215.84;5012135;28;20030;-66
2021/06/22 02:36:24;;;;;;;7.47;6.68;;;;;;;22.96;38.88;102217.69;4993823;28;20048;-67
2021/06/22 02:38:51;;;;;;;8.05;7.00;;;;;;;22.98;39.06;102217.50;4994144;28;20038;-68
2021/06/22 02:41:16;;;;;;;9.27;7.00;;;;;;;22.97;39.02;102215.84;5001512;28;20396;-66
2021/06/22 02:43:42;;;;;;;8.13;7.20;;;;;;;22.97;38.99;102215.84;4993635;28;20034;-65
2021/06/22 02:46:07;;;;;;;8.45;7.55;;;;;;;22.96;39.02;102211.53;5001478;28;20113;-67
2021/06/22 02:48:33;;;;;;;8.27;7.20;;;;;;;22.96;38.49;102212.34;5011377;28;20058;-66
2021/06/22 02:50:58;;;;;;;8.00;7.13;;;;;;;22.96;38.91;102211.53;5011328;28;20033;-66
2021/06/22 02:53:24;;;;;;;7.28;6.50;;;;;;;22.96;38.70;102212.34;5002417;28;20549;-68
2021/06/22 02:55:49;;;;;;;9.68;6.97;;;;;;;22.96;38.73;102207.00;4998091;28;20042;-67
2021/06/22 02:58:15;;;;;;;7.55;6.68;;;;;;;22.96;38.73;102209.66;5011237;28;20050;-66
2021/06/22 03:00:41;;;;;;;8.45;7.00;;;;;;;22.96;38.50;102208.84;5011368;28;20029;-67
2021/06/22 03:03:06;;;;;;;7.35;6.57;;;;;;;22.96;38.69;102208.84;5011883;28;20037;-66
2021/06/22 03:05:32;;;;;;;8.70;7.03;;;;;;;22.96;38.22;102209.66;5010641;28;20127;-66
2021/06/22 03:07:58;;;;;;;7.82;7.03;;;;;;;22.96;38.43;102216.88;4992370;28;20397;-66
2021/06/22 03:10:24;;;;;;;8.20;6.95;;;;;;;22.95;38.12;102210.69;5011458;28;20412;-65
2021/06/22 03:12:51;;;;;;;9.30;7.30;;;;;;;22.96;38.36;102215.03;5009922;28;20048;-67
2021/06/22 03:15:18;;;;;;;8.77;6.97;;;;;;;22.96;38.14;102211.53;5011727;28;20551;-66
2021/06/22 03:17:44;;;;;;;8.23;6.95;;;;;;;22.94;38.00;102214.38;5010337;28;20041;-66
2021/06/22 03:20:11;;;;;;;8.02;6.80;;;;;;;22.96;37.91;102211.53;4979968;28;20096;-65
2021/06/22 03:22:37;;;;;;;7.60;6.60;;;;;;;22.95;38.33;102210.69;5010761;28;20381;-66
2021/06/22 03:25:04;;;;;;;6.97;6.28;;;;;;;22.95;38.26;102216.03;5010368;28;20338;-65
2021/06/22 03:27:29;;;;;;;9.02;7.70;;;;;;;22.93;38.40;102210.06;4973732;28;20057;-66
2021/06/22 03:29:55;;;;;;;8.57;7.25;;;;;;;22.95;38.05;102217.88;5006377;28;20117;-67
2021/06/22 03:32:20;;;;;;;9.30;7.30;;;;;;;22.93;38.22;102214.56;4997111;28;20116;-65
2021/06/22 03:34:46;;;;;;;8.18;7.03;;;;;;;22.95;38.29;102217.88;4985887;28;20397;-68
2021/06/22 03:37:12;;;;;;;7.97;6.88;;;;;;;22.95;37.84;102223.25;5009505;28;20088;-65
2021/06/22 03:39:38;;;;;;;8.10;6.97;;;;;;;22.94;38.02;102221.59;5010951;28;20034;-66
2021/06/22 03:42:04;;;;;;;7.72;6.93;;;;;;;22.94;38.23;102219.75;5007748;28;20033;-65
2021/06/22 03:44:32;;;;;;;8.20;7.00;;;;;;;22.94;37.94;102218.91;4992191;28;20069;-67
2021/06/22 03:46:58;;;;;;;8.63;7.25;;;;;;;22.94;38.05;102213.56;5011232;28;20041;-65
2021/06/22 03:49:23;;;;;;;9.05;7.13;;;;;;;22.93;37.99;102219.91;5019060;28;20064;-67
2021/06/22 03:51:50;;;;;;;8.18;7.38;;;;;;;22.93;38.12;102211.91;4996316;28;20079;-66
2021/06/22 03:54:16;;;;;;;7.68;6.88;;;;;;;22.92;37.49;102210.25;5010406;28;20476;-65
2021/06/22 03:56:41;;;;;;;7.70;6.90;;;;;;;22.93;37.47;102209.22;5007425;28;20045;-66
2021/06/22 03:59:06;;;;;;;7.65;6.85;;;;;;;22.91;37.76;102206.72;5009551;28;20037;-66
2021/06/22 04:01:32;;;;;;;8.52;7.07;;;;;;;22.91;37.55;102217.44;5011519;28;20026;-68
2021/06/22 04:03:57;;;;;;;9.05;6.90;;;;;;;22.91;37.76;102220.13;5004159;28;20489;-66
2021/06/22 04:06:23;;;;;;;8.50;7.57;;;;;;;22.91;37.49;102216.59;5009885;28;20038;-69
2021/06/22 04:08:48;;;;;;;7.70;6.90;;;;;;;22.91;37.32;102208.56;5009881;28;20044;-66
2021/06/22 04:11:14;;;;;;;7.85;6.93;;;;;;;22.90;37.19;102221.13;5010022;28;20537;-65
2021/06/22 04:13:39;;;;;;;7.88;7.00;;;;;;;22.90;37.37;102226.47;4982110;28;20042;-67
2021/06/22 04:16:05;;;;;;;7.60;6.70;;;;;;;22.90;37.52;102225.66;4988079;28;20127;-66
2021/06/22 04:18:30;;;;;;;8.43;7.15;;;;;;;22.90;37.39;102226.47;5007814;28;20187;-66
2021/06/22 04:20:56;;;;;;;7.93;6.57;;;;;;;22.89;37.17;102224.00;5015804;28;20116;-68
2021/06/22 04:23:21;;;;;;;9.45;7.78;;;;;;;22.89;37.37;102221.31;5020762;28;20476;-66
2021/06/22 04:25:49;;;;;;;9.70;7.18;;;;;;;22.88;37.08;102216.94;5014945;28;20032;-66
2021/06/22 04:28:15;;;;;;;10.18;7.07;;;;;;;22.90;36.90;102222.97;5020135;28;20041;-67
2021/06/22 04:30:41;;;;;;;8.38;7.28;;;;;;;22.88;37.35;102228.50;5012008;28;20033;-67
2021/06/22 04:33:07;;;;;;;7.72;6.72;;;;;;;22.88;37.31;102233.00;5015011;28;20551;-67
2021/06/22 04:35:33;;;;;;;8.95;6.97;;;;;;;22.87;37.27;102226.81;5018459;28;20461;-66
2021/06/22 04:38:00;;;;;;;8.02;7.22;;;;;;;22.89;37.23;102234.69;5015510;28;20122;-66
2021/06/22 04:40:27;;;;;;;7.63;6.60;;;;;;;22.87;37.05;102226.81;5020351;28;20040;-65
2021/06/22 04:42:52;;;;;;;8.00;6.72;;;;;;;22.89;37.12;102229.34;5014712;28;20088;-66
2021/06/22 04:45:18;;;;;;;7.60;6.80;;;;;;;22.89;37.11;102226.66;5009636;28;20049;-66
2021/06/22 04:47:43;;;;;;;7.45;6.63;;;;;;;22.89;37.33;102234.69;5015126;28;20054;-67
2021/06/22 04:50:09;;;;;;;8.07;6.93;;;;;;;22.88;37.13;102222.31;5002747;28;20044;-65
2021/06/22 04:52:36;;;;;;;8.05;6.65;;;;;;;22.89;37.26;102229.34;4993528;28;20052;-68
2021/06/22 04:55:02;;;;;;;8.35;6.20;;;;;;;22.88;37.17;102233.88;5016753;28;20030;-66
2021/06/22 04:57:28;;;;;;;7.55;6.70;;;;;;;22.89;37.33;102232.03;5020674;28;20069;-66
2021/06/22 04:59:54;;;;;;;7.25;6.35;;;;;;;22.88;37.38;102236.53;4997947;28;20065;-66
2021/06/22 05:02:20;;;;;;;7.47;6.15;;;;;;;22.88;37.29;102238.34;5021577;28;20065;-65
2021/06/22 05:04:46;;;;;;;8.57;6.82;;;;;;;22.89;37.07;102240.03;5013688;28;20538;-71
2021/06/22 05:07:11;;;;;;;7.05;6.35;;;;;;;22.88;37.49;102239.22;5008734;28;20038;-66
2021/06/22 05:09:37;;;;;;;7.60;6.75;;;;;;;22.89;37.02;102245.41;4995719;28;20048;-65
2021/06/22 05:12:02;;;;;;;9.13;6.60;;;;;;;22.89;37.05;102246.22;5009231;28;20034;-65
2021/06/22 05:14:28;;;;;;;7.55;6.72;;;;;;;22.88;37.12;102249.91;4991851;28;20038;-65
2021/06/22 05:16:53;;;;;;;7.88;6.53;;;;;;;22.89;36.97;102256.09;4992973;28;20171;-67
2021/06/22 05:19:19;;;;;;;7.18;6.43;;;;;;;22.88;37.39;102249.06;4977788;28;20422;-65
2021/06/22 05:21:44;;;;;;;7.63;6.35;;;;;;;22.87;37.10;102247.41;5008345;28;20119;-68
2021/06/22 05:24:11;;;;;;;6.72;5.80;;;;;;;22.88;37.06;102249.06;4975434;28;20505;-68
2021/06/22 05:26:36;;;;;;;8.07;5.95;;;;;;;22.87;37.56;102248.22;5008604;28;20068;-67
2021/06/22 05:29:03;;;;;;;7.05;6.20;;;;;;;22.89;37.85;102261.44;4980427;28;20046;-65
2021/06/22 05:31:28;;;;;;;7.82;6.13;;;;;;;22.88;37.87;102255.28;5006012;28;20025;-65
2021/06/22 05:33:55;;;;;;;10.13;6.35;;;;;;;22.89;38.29;102259.59;5001603;28;20041;-67
2021/06/22 05:36:21;;;;;;;15.40;5.88;;;;;;;22.90;38.45;102260.44;4989993;28;20450;-66
2021/06/22 05:38:46;;;;;;;7.13;5.32;;;;;;;22.90;38.66;102271.13;5000659;28;20049;-67
2021/06/22 05:41:12;;;;;;;9.65;6.45;;;;;;;22.90;39.28;102268.47;5007654;28;20064;-64
2021/06/22 05:43:37;;;;;;;7.88;6.22;;;;;;;22.91;39.35;102264.78;4999040;28;20056;-66
2021/06/22 05:46:03;;;;;;;9.98;5.75;;;;;;;22.91;39.45;102264.78;5010625;28;20100;-67
2021/06/22 05:48:28;;;;;;;8.93;5.85;;;;;;;22.92;39.33;102263.75;4996365;28;20104;-66
2021/06/22 05:50:54;;;;;;;7.72;6.15;;;;;;;22.92;39.47;102266.44;5002381;28;20059;-70
2021/06/22 05:53:19;;;;;;;9.38;6.05;;;;;;;22.91;39.04;102260.25;4979243;28;20138;-66
2021/06/22 05:55:45;;;;;;;9.23;6.68;;;;;;;22.92;39.19;102266.44;4993087;28;20059;-73
2021/06/22 05:58:10;;;;;;;9.00;6.32;;;;;;;22.92;39.25;102271.78;4994652;28;20041;-67
2021/06/22 06:00:36;;;;;;;10.77;6.13;;;;;;;22.91;39.05;102259.41;4973737;28;20452;-66
2021/06/22 06:03:01;;;;;;;11.30;5.90;;;;;;;22.91;39.23;102267.44;5006872;28;20038;-67
2021/06/22 06:05:27;;;;;;;8.55;6.85;;;;;;;22.90;38.62;102263.13;4991215;28;20030;-67
2021/06/22 06:07:53;;;;;;;8.07;6.53;;;;;;;22.89;38.32;102259.59;4971775;28;20049;-65
2021/06/22 06:10:20;;;;;;;7.13;6.05;;;;;;;22.89;38.60;102264.13;4995267;28;20121;-68
2021/06/22 06:12:46;;;;;;;8.60;6.38;;;;;;;22.88;38.44;102265.97;5002304;28;20034;-68
2021/06/22 06:15:13;;;;;;;8.63;6.50;;;;;;;22.87;38.59;102271.47;4998411;28;20036;-66
2021/06/22 06:17:39;;;;;;;8.70;6.35;;;;;;;22.85;38.30;102273.50;5004970;28;20038;-68
2021/06/22 06:20:07;;;;;;;10.13;6.10;;;;;;;22.83;38.24;102278.22;5004821;28;20042;-65
2021/06/22 06:22:34;;;;;;;7.75;5.97;;;;;;;22.83;38.61;102279.06;5005166;28;20037;-66
2021/06/22 06:25:02;;;;;;;10.50;7.05;;;;;;;22.84;38.76;102277.22;4990981;28;20378;-66
2021/06/22 06:27:52;;;;;;;7.50;6.68;;;;;;;22.83;38.49;102279.06;4992588;28;20113;-64
2021/06/22 06:30:22;;;;;;;7.15;6.30;;;;;;;22.83;38.54;102279.06;4991145;28;20049;-61
2021/06/22 06:32:49;;;;;;;8.38;6.22;;;;;;;22.83;38.65;102275.53;5004014;28;20142;-70
2021/06/22 06:35:16;;;;;;;7.60;5.93;;;;;;;22.84;38.70;102280.72;4998563;28;20215;-68
2021/06/22 06:37:42;;;;;;;7.70;5.88;;;;;;;22.85;38.76;102286.91;4999248;28;20108;-64
2021/06/22 06:40:08;;;;;;;9.50;6.03;;;;;;;22.85;38.72;102293.06;4983562;28;20027;-64
2021/06/22 06:42:34;;;;;;;14.55;6.82;;;;;;;22.86;38.76;102285.88;4994040;28;20059;-64
2021/06/22 06:44:59;;;;;;;8.35;5.85;;;;;;;22.86;38.45;102288.56;4988994;28;20077;-64
2021/06/22 06:47:25;;;;;;;8.57;6.10;;;;;;;22.86;38.67;102288.56;5004180;28;20103;-68
2021/06/22 06:49:51;;;;;;;7.65;5.85;;;;;;;22.85;38.70;102287.72;5007386;28;20152;-66
2021/06/22 06:52:16;;;;;;;5.82;5.22;;;;;;;22.86;38.83;102289.38;5007376;28;20046;-70
2021/06/22 06:54:42;;;;;;;7.82;6.28;;;;;;;22.87;38.52;102290.22;5010583;28;20073;-64
2021/06/22 06:57:07;;;;;;;8.50;6.53;;;;;;;22.86;38.45;102293.91;4998853;28;20033;-64
2021/06/22 06:59:34;;;;;;;8.98;6.57;;;;;;;22.86;38.78;102293.91;4989619;28;20118;-66
2021/06/22 07:01:59;;;;;;;9.18;6.78;;;;;;;22.84;38.63;102295.94;5017124;28;20041;-65
2021/06/22 07:04:25;;;;;;;9.90;6.10;;;;;;;22.82;38.48;102301.47;4997943;28;20559;-64
2021/06/22 07:06:50;;;;;;;7.43;6.03;;;;;;;22.81;38.40;102306.97;4973265;28;20031;-68
2021/06/22 07:09:16;;;;;;;11.73;6.88;;;;;;;22.80;38.26;102305.31;4975515;28;20044;-67
2021/06/22 07:11:42;;;;;;;8.15;6.32;;;;;;;22.80;38.44;102302.63;4995691;28;20157;-65
2021/06/22 07:14:07;;;;;;;9.73;6.63;;;;;;;22.78;38.23;102307.34;5002471;28;20157;-63
2021/06/22 07:16:33;;;;;;;10.25;6.70;;;;;;;22.75;37.89;102302.38;4995050;28;20535;-64
2021/06/22 07:18:59;;;;;;;8.50;6.65;;;;;;;22.75;37.93;102305.88;5013213;28;20037;-65
2021/06/22 07:21:25;;;;;;;7.85;6.85;;;;;;;22.74;38.15;102308.72;5002318;28;20325;-66
2021/06/22 07:23:52;;;;;;;14.95;7.03;;;;;;;22.72;37.71;102308.88;5011863;28;20442;-67
2021/06/22 07:26:18;;;;;;;14.68;7.15;;;;;;;22.68;37.51;102307.59;4978723;28;20034;-64
2021/06/22 07:28:43;;;;;;;11.13;7.15;;;;;;;22.66;37.85;102301.59;5014536;28;20034;-65
2021/06/22 07:31:11;;;;;;;11.43;7.25;;;;;;;22.65;37.53;102305.28;5014911;28;20092;-64
2021/06/22 07:33:36;;;;;;;13.25;6.95;;;;;;;22.63;37.57;102308.16;5007377;28;20037;-67
2021/06/22 07:36:02;;;;;;;9.35;6.75;;;;;;;22.62;37.35;102313.69;4996559;28;20034;-65
2021/06/22 07:38:27;;;;;;;10.80;6.65;;;;;;;22.60;37.58;102300.47;5016889;28;20460;-63
2021/06/22 07:40:53;;;;;;;11.82;6.72;;;;;;;22.59;37.64;102306.84;5014868;28;20030;-63
2021/06/22 07:43:19;;;;;;;15.98;7.35;;;;;;;22.58;37.83;102302.50;4975452;28;20456;-66
2021/06/22 07:45:44;;;;;;;10.32;7.18;;;;;;;22.58;37.42;102296.34;5009540;28;20026;-64
2021/06/22 07:48:10;;;;;;;10.02;6.90;;;;;;;22.57;37.52;102311.56;5010605;28;20108;-69
2021/06/22 07:50:36;;;;;;;10.00;7.00;;;;;;;22.56;37.38;102312.53;4979146;28;20191;-64
2021/06/22 07:53:03;;;;;;;11.90;7.35;;;;;;;22.55;37.85;102312.72;5007082;28;20030;-63
2021/06/22 07:55:29;;;;;;;14.27;6.88;;;;;;;22.54;37.63;102308.38;4978910;28;20042;-64
2021/06/22 07:57:55;;;;;;;15.88;7.40;;;;;;;22.55;37.75;102307.38;4996193;28;20130;-63
2021/06/22 08:02:58;;;;;;;18.17;8.80;;;;;;;22.54;37.77;102309.22;5009682;28;20128;-68
2021/06/22 08:05:24;;;;;;;17.90;8.85;;;;;;;22.54;37.66;102306.53;5003115;28;20034;-63
2021/06/22 08:07:50;;;;;;;19.58;9.27;;;;;;;22.54;37.71;102309.22;4994444;28;20045;-64
2021/06/22 08:10:15;;;;;;;19.80;9.48;;;;;;;22.53;37.60;102307.56;5002943;28;20056;-64
2021/06/22 08:12:41;;;;;;;18.58;8.35;;;;;;;22.55;37.66;102315.38;4993330;28;20046;-64
2021/06/22 08:15:07;;;;;;;17.92;8.45;;;;;;;22.54;38.01;102313.72;4982468;28;20113;-64
2021/06/22 08:17:33;;;;;;;14.05;8.60;;;;;;;22.53;37.45;102318.25;4987559;28;20449;-65
2021/06/22 08:19:59;;;;;;;16.75;7.85;;;;;;;22.53;37.93;102314.75;5015632;28;20107;-68
2021/06/22 08:22:24;;;;;;;17.20;8.63;;;;;;;22.53;37.69;102317.41;5007846;28;20068;-63
2021/06/22 08:24:49;;;;;;;16.02;7.72;;;;;;;22.52;37.29;102313.09;5001629;28;20046;-63
2021/06/22 08:27:15;;;;;;;11.15;7.40;;;;;;;22.51;37.54;102317.59;5008239;28;20033;-64
2021/06/22 08:29:40;;;;;;;14.18;7.55;;;;;;;22.51;37.35;102314.09;5009000;28;20038;-63
2021/06/22 08:32:06;;;;;;;12.07;7.85;;;;;;;22.49;37.57;102324.97;4998353;28;20068;-63
2021/06/22 08:34:32;;;;;;;14.90;7.68;;;;;;;22.47;37.26;102324.31;5001613;28;20038;-64
2021/06/22 08:36:57;;;;;;;12.25;6.68;;;;;;;22.46;37.46;102314.63;5022196;28;20530;-63
2021/06/22 08:39:23;;;;;;;10.50;7.55;;;;;;;22.45;37.13;102317.50;5010017;28;20049;-63
2021/06/22 08:41:50;;;;;;;9.45;7.13;;;;;;;22.44;37.43;102322.00;5025155;28;20049;-62
2021/06/22 08:44:19;;;;;;;12.65;7.20;;;;;;;22.42;37.36;102322.19;4992358;28;20033;-65
2021/06/22 08:46:45;;;;;;;12.43;7.28;;;;;;;22.42;37.24;102322.19;5011754;28;20567;-64
2021/06/22 08:49:13;;;;;;;10.27;7.35;;;;;;;22.40;37.34;102316.16;4993389;28;20054;-64
2021/06/22 08:51:41;;;;;;;8.80;6.88;;;;;;;22.39;36.89;102313.69;5002703;28;20093;-64
2021/06/22 08:54:07;;;;;;;10.20;6.97;;;;;;;22.39;37.21;102319.03;5020579;28;20026;-63
2021/06/22 08:56:33;;;;;;;14.20;7.03;;;;;;;22.37;36.80;102305.84;5010284;28;20041;-63
2021/06/22 08:58:59;;;;;;;11.93;6.85;;;;;;;22.38;36.90;102309.34;5019216;28;20033;-64
2021/06/22 09:01:25;;;;;;;9.52;6.22;;;;;;;22.36;36.97;102298.00;5005405;28;20707;-65
2021/06/22 09:03:50;;;;;;;10.48;6.60;;;;;;;22.37;37.12;102300.50;5019544;28;20122;-65
2021/06/22 09:06:16;;;;;;;7.85;6.60;;;;;;;22.37;37.05;102297.00;4991220;28;20042;-64
2021/06/22 09:08:53;;;;;;;12.77;7.20;;;;;;;22.35;37.39;102307.88;5008861;28;20384;-63
2021/06/22 09:11:19;;;;;;;16.63;7.43;;;;;;;22.38;37.35;102307.50;5007955;28;20099;-65
2021/06/22 09:14:01;;;;;;;17.77;8.15;;;;;;;22.34;37.42;102305.38;5004828;28;20041;-63
2021/06/22 09:16:28;;;;;;;14.20;7.03;;;;;;;22.36;37.30;102306.03;4989695;28;20046;-64
2021/06/22 09:19:01;;;;;;;13.00;7.15;;;;;;;22.35;36.99;102313.22;5010978;28;20037;-65
2021/06/22 09:21:26;;;;;;;11.88;7.22;;;;;;;22.35;37.18;102313.22;5004347;28;20641;-64
2021/06/22 09:23:56;;;;;;;10.38;6.68;;;;;;;22.35;36.89;102317.72;5010645;28;20038;-63
2021/06/22 09:26:25;;;;;;;10.88;6.93;;;;;;;22.34;36.67;102310.72;5012445;28;20034;-64
2021/06/22 09:29:04;;;;;;;11.00;7.03;;;;;;;22.32;36.61;102312.75;5011266;28;20152;-64
2021/06/22 09:31:29;;;;;;;10.38;6.40;;;;;;;22.30;36.65;102317.44;5010063;28;20021;-63
2021/06/22 09:33:55;;;;;;;8.63;6.07;;;;;;;22.30;36.36;102318.28;5003486;28;20355;-63
2021/06/22 09:36:26;;;;;;;8.98;5.72;;;;;;;22.29;36.48;102319.28;5011391;28;20485;-64
2021/06/22 09:38:52;;;;;;;9.30;6.30;;;;;;;22.30;36.11;102314.75;4999020;28;20026;-63
2021/06/22 09:41:29;;;;;;;8.65;6.47;;;;;;;22.29;36.14;102315.78;4998529;28;20034;-63
2021/06/22 09:44:12;;;;;;;9.85;6.40;;;;;;;22.26;36.02;102321.50;4998507;28;20472;-64
2021/06/22 09:46:51;;;;;;;8.50;5.75;;;;;;;22.28;35.76;102317.63;5012677;28;20045;-64
2021/06/22 09:49:21;;;;;;;9.52;6.43;;;;;;;22.28;35.75;102317.63;4989064;28;20456;-64
2021/06/22 09:51:55;;;;;;;7.45;5.35;;;;;;;22.27;35.72;102315.13;4986012;28;20023;-63
2021/06/22 09:54:30;;;;;;;10.43;6.07;;;;;;;22.27;35.94;102326.66;4999018;28;20037;-65
2021/06/22 09:57:13;;;;;;;7.53;5.93;;;;;;;22.25;35.72;102322.47;4998527;28;20337;-64
2021/06/22 09:59:51;;;;;;;8.98;5.93;;;;;;;22.24;35.27;102328.81;4997953;28;20041;-63
2021/06/22 10:02:18;;;;;;;9.63;5.65;;;;;;;22.26;35.16;102313.47;5000205;28;20030;-63
2021/06/22 10:04:48;;;;;;;7.63;5.60;;;;;;;22.25;34.88;102320.66;4995075;28;20027;-65
2021/06/22 10:07:15;;;;;;;7.05;5.70;;;;;;;22.25;35.47;102325.16;4988818;28;20073;-63
2021/06/22 10:09:41;;;;;;;10.65;6.10;;;;;;;22.23;35.21;102321.81;4975337;28;20057;-63
2021/06/22 10:12:14;;;;;;;9.70;5.93;;;;;;;22.22;35.21;102325.50;4978025;28;20039;-63
2021/06/22 10:14:49;;;;;;;13.27;6.40;;;;;;;22.21;35.07;102316.66;4987713;28;20079;-67
2021/06/22 10:17:18;;;;;;;7.18;4.88;;;;;;;22.22;35.06;102323.66;4988979;28;20062;-64
2021/06/22 10:19:46;;;;;;;10.88;5.72;;;;;;;22.23;34.83;102319.16;4988782;28;20038;-65
2021/06/22 10:22:14;;;;;;;9.13;5.93;;;;;;;22.24;34.72;102326.16;4988567;28;20034;-63
2021/06/22 10:24:45;;;;;;;8.38;5.72;;;;;;;22.23;34.68;102319.97;4988311;28;20031;-64
2021/06/22 10:27:12;;;;;;;12.05;6.25;;;;;;;22.24;34.71;102321.63;4982742;28;20134;-65
2021/06/22 10:29:38;;;;;;;7.32;5.72;;;;;;;22.24;34.62;102313.63;4990447;28;20058;-63
2021/06/22 10:32:05;;;;;;;9.25;5.95;;;;;;;22.25;34.99;102307.28;4981148;28;20061;-64
2021/06/22 10:34:31;;;;;;;8.32;5.68;;;;;;;22.25;34.77;102307.28;4992016;28;20056;-64
2021/06/22 10:37:23;;;;;;;9.45;5.88;;;;;;;22.25;34.63;102306.44;4991736;28;20022;-64
2021/06/22 10:39:55;;;;;;;9.95;6.07;;;;;;;22.24;34.22;102310.13;4982592;28;20038;-63
2021/06/22 10:42:21;;;;;;;8.02;5.45;;;;;;;22.23;34.08;102313.81;4992164;28;20120;-65
2021/06/22 10:44:52;;;;;;;10.32;6.50;;;;;;;22.22;34.48;102309.47;4991970;28;20038;-65
2021/06/22 10:47:26;;;;;;;11.32;5.45;;;;;;;22.20;34.02;102306.97;4992370;28;20481;-63
2021/06/22 10:49:55;;;;;;;;;;;;;;;22.14;34.22;102306.88;4990036;28;20385;-63
2021/06/22 10:52:43;;;;;;;8.63;5.40;;;;;;;22.15;34.15;102300.50;4990598;28;19917;-63
2021/06/22 10:55:18;;;;;;;9.18;5.65;;;;;;;22.18;34.05;102306.31;5000711;28;20085;-64
2021/06/22 10:57:58;;;;;;;7.55;5.25;;;;;;;22.16;34.05;102302.16;5002126;28;20516;-64
2021/06/22 11:00:41;;;;;;;8.20;5.30;;;;;;;22.17;33.92;102295.81;4995701;28;20032;-64
2021/06/22 11:03:10;;;;;;;7.43;5.18;;;;;;;22.18;34.29;102292.13;4999691;28;20045;-63
2021/06/22 11:05:43;;;;;;;10.30;5.82;;;;;;;22.19;34.33;102291.13;4994263;28;20058;-63
2021/06/22 11:08:11;;;;;;;8.75;5.40;;;;;;;22.21;33.89;102294.44;4991403;28;20022;-63
2021/06/22 11:11:00;;;;;;;5.93;5.10;;;;;;;22.19;33.99;102296.47;4978908;28;20121;-64
2021/06/22 11:13:35;;;;;;;7.78;4.97;;;;;;;22.21;34.12;102294.44;4976744;28;20169;-64
2021/06/22 11:16:05;;;;;;;7.10;5.05;;;;;;;22.21;33.80;102297.13;4991729;28;20057;-64
2021/06/22 11:21:19;;;;;;;8.13;5.40;;;;;;;22.21;33.89;102299.78;4977116;28;20026;-63
2021/06/22 11:23:57;;;;;;;8.93;5.35;;;;;;;22.18;33.38;102302.81;4991511;28;20132;-64
2021/06/22 11:26:25;;;;;;;8.63;4.97;;;;;;;22.21;33.48;102305.13;4991368;28;20018;-63
2021/06/22 11:28:52;;;;;;;8.38;5.10;;;;;;;22.19;33.08;102302.63;4990537;28;20062;-63
2021/06/22 11:31:43;;;;;;;9.32;5.25;;;;;;;22.17;33.32;102293.13;4991256;28;20435;-64
2021/06/22 11:34:16;;;;;;;9.77;5.13;;;;;;;22.18;33.54;102300.97;4991408;28;20389;-63